sensor_id;sensor_type;location;lat;lon;timestamp;temperature;humidity
23311;DHT22;11828;51.508;18.118;2022-12-07T00:01:30;22.90;28.60
23311;DHT22;11828;51.508;18.118;2022-12-07T00:03:59;22.90;28.80
23311;DHT22;11828;51.508;18.118;2022-12-07T00:06:35;22.90;28.70
23311;DHT22;11828;51.508;18.118;2022-12-07T00:09:04;22.90;28.80
23311;DHT22;11828;51.508;18.118;2022-12-07T00:11:31;22.90;28.90
23311;DHT22;11828;51.508;18.118;2022-12-07T00:14:00;22.90;28.90
23311;DHT22;11828;51.508;18.118;2022-12-07T00:16:31;23.00;28.80
23311;DHT22;11828;51.508;18.118;2022-12-07T00:18:58;23.00;28.80
23311;DHT22;11828;51.508;18.118;2022-12-07T00:21:26;22.90;28.60
23311;DHT22;11828;51.508;18.118;2022-12-07T00:23:55;22.90;28.70
23311;DHT22;11828;51.508;18.118;2022-12-07T00:26:23;22.90;28.70
23311;DHT22;11828;51.508;18.118;2022-12-07T00:28:58;22.90;28.80
23311;DHT22;11828;51.508;18.118;2022-12-07T00:31:29;22.70;28.80
23311;DHT22;11828;51.508;18.118;2022-12-07T00:33:59;22.70;28.80
23311;DHT22;11828;51.508;18.118;2022-12-07T00:36:25;22.70;28.90
23311;DHT22;11828;51.508;18.118;2022-12-07T00:38:52;22.60;29.10
23311;DHT22;11828;51.508;18.118;2022-12-07T00:41:20;22.70;29.10
23311;DHT22;11828;51.508;18.118;2022-12-07T00:43:49;22.60;29.10
23311;DHT22;11828;51.508;18.118;2022-12-07T00:46:16;22.60;29.10
23311;DHT22;11828;51.508;18.118;2022-12-07T00:48:43;22.60;29.10
23311;DHT22;11828;51.508;18.118;2022-12-07T00:51:14;22.70;29.10
23311;DHT22;11828;51.508;18.118;2022-12-07T00:53:41;22.50;29.10
23311;DHT22;11828;51.508;18.118;2022-12-07T00:56:16;22.70;29.10
23311;DHT22;11828;51.508;18.118;2022-12-07T00:58:59;22.60;29.10
23311;DHT22;11828;51.508;18.118;2022-12-07T01:01:28;22.60;29.10
23311;DHT22;11828;51.508;18.118;2022-12-07T01:03:56;22.70;29.10
23311;DHT22;11828;51.508;18.118;2022-12-07T01:06:23;22.70;29.10
23311;DHT22;11828;51.508;18.118;2022-12-07T01:08:51;22.70;29.10
23311;DHT22;11828;51.508;18.118;2022-12-07T01:11:20;22.60;29.10
23311;DHT22;11828;51.508;18.118;2022-12-07T01:13:50;22.70;29.10
23311;DHT22;11828;51.508;18.118;2022-12-07T01:16:17;22.80;29.10
23311;DHT22;11828;51.508;18.118;2022-12-07T01:18:46;22.80;29.00
23311;DHT22;11828;51.508;18.118;2022-12-07T01:21:22;22.80;29.40
23311;DHT22;11828;51.508;18.118;2022-12-07T01:23:53;22.80;28.90
23311;DHT22;11828;51.508;18.118;2022-12-07T01:26:22;22.80;28.80
23311;DHT22;11828;51.508;18.118;2022-12-07T01:28:49;22.70;28.90
23311;DHT22;11828;51.508;18.118;2022-12-07T01:31:18;22.60;29.00
23311;DHT22;11828;51.508;18.118;2022-12-07T01:33:49;22.70;29.10
23311;DHT22;11828;51.508;18.118;2022-12-07T01:36:18;22.60;29.10
23311;DHT22;11828;51.508;18.118;2022-12-07T01:38:50;22.50;29.10
23311;DHT22;11828;51.508;18.118;2022-12-07T01:41:19;22.50;29.20
23311;DHT22;11828;51.508;18.118;2022-12-07T01:49:54;22.40;29.20
23311;DHT22;11828;51.508;18.118;2022-12-07T01:52:23;22.30;29.20
23311;DHT22;11828;51.508;18.118;2022-12-07T01:54:56;22.30;29.20
23311;DHT22;11828;51.508;18.118;2022-12-07T01:57:24;22.30;29.20
23311;DHT22;11828;51.508;18.118;2022-12-07T01:59:51;22.20;29.20
23311;DHT22;11828;51.508;18.118;2022-12-07T02:02:33;22.20;29.20
23311;DHT22;11828;51.508;18.118;2022-12-07T02:05:05;22.30;29.40
23311;DHT22;11828;51.508;18.118;2022-12-07T02:07:35;22.20;29.20
23311;DHT22;11828;51.508;18.118;2022-12-07T02:12:38;22.20;29.50
23311;DHT22;11828;51.508;18.118;2022-12-07T02:15:06;22.20;29.50
23311;DHT22;11828;51.508;18.118;2022-12-07T02:17:44;22.20;29.50
23311;DHT22;11828;51.508;18.118;2022-12-07T02:20:21;22.20;29.50
23311;DHT22;11828;51.508;18.118;2022-12-07T02:23:18;22.20;29.60
23311;DHT22;11828;51.508;18.118;2022-12-07T02:29:35;22.20;29.70
23311;DHT22;11828;51.508;18.118;2022-12-07T02:32:08;22.30;30.10
23311;DHT22;11828;51.508;18.118;2022-12-07T02:37:39;22.30;29.90
23311;DHT22;11828;51.508;18.118;2022-12-07T02:40:38;22.30;29.80
23311;DHT22;11828;51.508;18.118;2022-12-07T02:43:22;22.40;29.80
23311;DHT22;11828;51.508;18.118;2022-12-07T02:45:52;22.50;29.80
23311;DHT22;11828;51.508;18.118;2022-12-07T02:48:21;22.50;29.50
23311;DHT22;11828;51.508;18.118;2022-12-07T02:50:52;22.50;29.50
23311;DHT22;11828;51.508;18.118;2022-12-07T02:53:35;22.40;29.60
23311;DHT22;11828;51.508;18.118;2022-12-07T03:16:49;22.40;29.80
23311;DHT22;11828;51.508;18.118;2022-12-07T03:19:20;22.40;29.80
23311;DHT22;11828;51.508;18.118;2022-12-07T03:21:57;22.50;29.80
23311;DHT22;11828;51.508;18.118;2022-12-07T03:24:31;22.50;29.80
23311;DHT22;11828;51.508;18.118;2022-12-07T03:27:09;22.50;29.80
23311;DHT22;11828;51.508;18.118;2022-12-07T03:29:48;22.50;29.80
23311;DHT22;11828;51.508;18.118;2022-12-07T03:35:43;22.50;29.80
23311;DHT22;11828;51.508;18.118;2022-12-07T03:39:02;22.50;29.80
23311;DHT22;11828;51.508;18.118;2022-12-07T03:41:31;22.50;29.80
23311;DHT22;11828;51.508;18.118;2022-12-07T03:44:00;22.60;29.90
23311;DHT22;11828;51.508;18.118;2022-12-07T03:49:43;22.60;29.90
23311;DHT22;11828;51.508;18.118;2022-12-07T03:55:40;22.70;29.90
23311;DHT22;11828;51.508;18.118;2022-12-07T03:58:14;22.70;29.70
23311;DHT22;11828;51.508;18.118;2022-12-07T04:00:45;22.70;29.70
23311;DHT22;11828;51.508;18.118;2022-12-07T04:03:12;22.60;29.70
23311;DHT22;11828;51.508;18.118;2022-12-07T04:05:39;22.60;29.80
23311;DHT22;11828;51.508;18.118;2022-12-07T04:08:05;22.50;29.80
23311;DHT22;11828;51.508;18.118;2022-12-07T04:10:31;22.60;29.80
23311;DHT22;11828;51.508;18.118;2022-12-07T04:12:57;22.60;29.80
23311;DHT22;11828;51.508;18.118;2022-12-07T04:15:24;22.70;29.80
23311;DHT22;11828;51.508;18.118;2022-12-07T04:17:50;22.70;29.70
23311;DHT22;11828;51.508;18.118;2022-12-07T04:20:16;22.60;29.70
23311;DHT22;11828;51.508;18.118;2022-12-07T04:22:42;22.60;29.80
23311;DHT22;11828;51.508;18.118;2022-12-07T04:25:09;22.50;29.80
23311;DHT22;11828;51.508;18.118;2022-12-07T04:27:35;22.60;29.90
23311;DHT22;11828;51.508;18.118;2022-12-07T04:30:02;22.50;29.80
23311;DHT22;11828;51.508;18.118;2022-12-07T04:32:28;22.50;29.90
23311;DHT22;11828;51.508;18.118;2022-12-07T04:34:55;22.50;29.90
23311;DHT22;11828;51.508;18.118;2022-12-07T04:37:21;22.50;29.80
23311;DHT22;11828;51.508;18.118;2022-12-07T04:39:47;22.50;29.90
23311;DHT22;11828;51.508;18.118;2022-12-07T04:42:13;22.60;30.00
23311;DHT22;11828;51.508;18.118;2022-12-07T04:44:39;22.60;29.90
23311;DHT22;11828;51.508;18.118;2022-12-07T04:47:05;22.70;29.90
23311;DHT22;11828;51.508;18.118;2022-12-07T04:49:32;22.60;29.80
23311;DHT22;11828;51.508;18.118;2022-12-07T04:51:58;22.70;29.80
23311;DHT22;11828;51.508;18.118;2022-12-07T04:54:24;22.70;29.70
23311;DHT22;11828;51.508;18.118;2022-12-07T04:56:50;22.70;29.60
23311;DHT22;11828;51.508;18.118;2022-12-07T04:59:17;22.70;29.60
23311;DHT22;11828;51.508;18.118;2022-12-07T05:01:43;22.80;29.70
23311;DHT22;11828;51.508;18.118;2022-12-07T05:04:10;22.70;29.60
23311;DHT22;11828;51.508;18.118;2022-12-07T05:06:36;22.80;29.60
23311;DHT22;11828;51.508;18.118;2022-12-07T05:09:03;22.70;29.60
23311;DHT22;11828;51.508;18.118;2022-12-07T05:11:30;22.70;29.60
23311;DHT22;11828;51.508;18.118;2022-12-07T05:14:14;22.70;29.60
23311;DHT22;11828;51.508;18.118;2022-12-07T05:16:42;22.70;29.80
23311;DHT22;11828;51.508;18.118;2022-12-07T05:19:09;22.70;29.70
23311;DHT22;11828;51.508;18.118;2022-12-07T05:21:36;22.70;29.60
23311;DHT22;11828;51.508;18.118;2022-12-07T05:24:04;22.70;29.50
23311;DHT22;11828;51.508;18.118;2022-12-07T05:26:30;22.70;29.50
23311;DHT22;11828;51.508;18.118;2022-12-07T05:28:57;22.60;30.00
23311;DHT22;11828;51.508;18.118;2022-12-07T05:31:24;22.60;29.50
23311;DHT22;11828;51.508;18.118;2022-12-07T05:33:51;22.50;29.60
23311;DHT22;11828;51.508;18.118;2022-12-07T05:36:18;22.50;29.60
23311;DHT22;11828;51.508;18.118;2022-12-07T05:38:45;22.40;29.60
23311;DHT22;11828;51.508;18.118;2022-12-07T05:41:14;22.30;29.70
23311;DHT22;11828;51.508;18.118;2022-12-07T05:44:01;22.40;29.80
23311;DHT22;11828;51.508;18.118;2022-12-07T05:46:27;22.40;29.80
23311;DHT22;11828;51.508;18.118;2022-12-07T05:48:53;22.40;29.80
23311;DHT22;11828;51.508;18.118;2022-12-07T05:51:19;22.40;30.20
23311;DHT22;11828;51.508;18.118;2022-12-07T05:53:45;22.40;29.70
23311;DHT22;11828;51.508;18.118;2022-12-07T05:56:12;22.40;29.70
23311;DHT22;11828;51.508;18.118;2022-12-07T05:58:38;22.50;29.70
23311;DHT22;11828;51.508;18.118;2022-12-07T06:01:22;22.50;29.60
23311;DHT22;11828;51.508;18.118;2022-12-07T06:03:49;22.50;29.60
23311;DHT22;11828;51.508;18.118;2022-12-07T06:06:15;22.50;29.50
23311;DHT22;11828;51.508;18.118;2022-12-07T06:08:41;22.40;29.60
23311;DHT22;11828;51.508;18.118;2022-12-07T06:11:07;22.50;29.70
23311;DHT22;11828;51.508;18.118;2022-12-07T06:13:52;22.50;30.10
23311;DHT22;11828;51.508;18.118;2022-12-07T06:16:18;22.40;29.60
23311;DHT22;11828;51.508;18.118;2022-12-07T06:18:44;22.40;29.60
23311;DHT22;11828;51.508;18.118;2022-12-07T06:21:11;22.50;29.60
23311;DHT22;11828;51.508;18.118;2022-12-07T06:23:37;22.40;29.50
23311;DHT22;11828;51.508;18.118;2022-12-07T06:26:03;22.40;29.60
23311;DHT22;11828;51.508;18.118;2022-12-07T06:28:29;22.30;29.60
23311;DHT22;11828;51.508;18.118;2022-12-07T06:30:59;22.30;29.70
23311;DHT22;11828;51.508;18.118;2022-12-07T06:33:27;22.30;29.70
23311;DHT22;11828;51.508;18.118;2022-12-07T06:35:53;22.30;29.60
23311;DHT22;11828;51.508;18.118;2022-12-07T06:38:20;22.30;29.70
23311;DHT22;11828;51.508;18.118;2022-12-07T06:40:47;22.30;29.70
23311;DHT22;11828;51.508;18.118;2022-12-07T06:43:14;22.40;29.70
23311;DHT22;11828;51.508;18.118;2022-12-07T06:45:41;22.40;29.80
23311;DHT22;11828;51.508;18.118;2022-12-07T06:48:07;22.30;29.60
23311;DHT22;11828;51.508;18.118;2022-12-07T06:50:33;22.30;29.70
23311;DHT22;11828;51.508;18.118;2022-12-07T06:53:00;22.20;29.70
23311;DHT22;11828;51.508;18.118;2022-12-07T06:55:26;22.20;29.80
23311;DHT22;11828;51.508;18.118;2022-12-07T06:57:52;22.20;29.90
23311;DHT22;11828;51.508;18.118;2022-12-07T07:00:18;22.10;29.90
23311;DHT22;11828;51.508;18.118;2022-12-07T07:02:45;22.10;30.00
23311;DHT22;11828;51.508;18.118;2022-12-07T07:05:11;22.10;30.00
23311;DHT22;11828;51.508;18.118;2022-12-07T07:07:37;22.10;29.90
23311;DHT22;11828;51.508;18.118;2022-12-07T07:10:03;22.20;30.00
23311;DHT22;11828;51.508;18.118;2022-12-07T07:12:30;22.20;30.00
23311;DHT22;11828;51.508;18.118;2022-12-07T07:14:56;22.20;30.00
23311;DHT22;11828;51.508;18.118;2022-12-07T07:17:22;22.10;29.90
23311;DHT22;11828;51.508;18.118;2022-12-07T07:19:48;22.20;29.90
23311;DHT22;11828;51.508;18.118;2022-12-07T07:22:14;22.10;30.00
23311;DHT22;11828;51.508;18.118;2022-12-07T07:24:41;22.10;30.00
23311;DHT22;11828;51.508;18.118;2022-12-07T07:27:07;22.10;30.00
23311;DHT22;11828;51.508;18.118;2022-12-07T07:29:42;22.10;30.00
23311;DHT22;11828;51.508;18.118;2022-12-07T07:32:08;22.10;30.00
23311;DHT22;11828;51.508;18.118;2022-12-07T07:34:34;22.00;30.00
23311;DHT22;11828;51.508;18.118;2022-12-07T07:37:00;21.90;30.00
23311;DHT22;11828;51.508;18.118;2022-12-07T07:39:26;21.90;30.00
23311;DHT22;11828;51.508;18.118;2022-12-07T07:41:53;21.80;30.20
23311;DHT22;11828;51.508;18.118;2022-12-07T07:44:19;21.80;30.10
23311;DHT22;11828;51.508;18.118;2022-12-07T07:46:45;21.70;30.10
23311;DHT22;11828;51.508;18.118;2022-12-07T07:49:11;21.80;30.90
23311;DHT22;11828;51.508;18.118;2022-12-07T07:51:38;21.70;30.00
23311;DHT22;11828;51.508;18.118;2022-12-07T07:54:04;21.60;30.10
23311;DHT22;11828;51.508;18.118;2022-12-07T07:56:31;21.60;30.20
23311;DHT22;11828;51.508;18.118;2022-12-07T07:58:57;21.60;30.40
23311;DHT22;11828;51.508;18.118;2022-12-07T08:01:23;21.70;30.20
23311;DHT22;11828;51.508;18.118;2022-12-07T08:03:50;21.60;30.20
23311;DHT22;11828;51.508;18.118;2022-12-07T08:06:17;21.60;30.30
23311;DHT22;11828;51.508;18.118;2022-12-07T08:08:43;21.80;30.20
23311;DHT22;11828;51.508;18.118;2022-12-07T08:11:09;21.80;30.30
23311;DHT22;11828;51.508;18.118;2022-12-07T08:13:35;21.90;30.00
23311;DHT22;11828;51.508;18.118;2022-12-07T08:16:07;22.10;29.90
23311;DHT22;11828;51.508;18.118;2022-12-07T08:18:41;22.20;29.80
23311;DHT22;11828;51.508;18.118;2022-12-07T08:21:11;22.30;29.60
23311;DHT22;11828;51.508;18.118;2022-12-07T08:23:39;22.50;29.30
23311;DHT22;11828;51.508;18.118;2022-12-07T08:26:09;22.60;29.20
23311;DHT22;11828;51.508;18.118;2022-12-07T08:28:37;22.50;29.20
23311;DHT22;11828;51.508;18.118;2022-12-07T08:31:06;22.60;29.80
23311;DHT22;11828;51.508;18.118;2022-12-07T08:33:37;22.60;29.30
23311;DHT22;11828;51.508;18.118;2022-12-07T08:36:07;22.50;29.20
23311;DHT22;11828;51.508;18.118;2022-12-07T08:38:35;22.40;29.20
23311;DHT22;11828;51.508;18.118;2022-12-07T08:41:02;22.40;29.30
23311;DHT22;11828;51.508;18.118;2022-12-07T08:43:28;22.40;29.30
23311;DHT22;11828;51.508;18.118;2022-12-07T08:46:19;22.30;29.40
23311;DHT22;11828;51.508;18.118;2022-12-07T08:49:13;22.30;28.90
23311;DHT22;11828;51.508;18.118;2022-12-07T08:51:42;22.30;29.00
23311;DHT22;11828;51.508;18.118;2022-12-07T08:54:12;22.30;28.90
23311;DHT22;11828;51.508;18.118;2022-12-07T08:56:41;22.20;28.90
23311;DHT22;11828;51.508;18.118;2022-12-07T08:59:08;22.30;29.00
23311;DHT22;11828;51.508;18.118;2022-12-07T09:01:34;22.20;28.90
23311;DHT22;11828;51.508;18.118;2022-12-07T09:04:00;22.30;28.80
23311;DHT22;11828;51.508;18.118;2022-12-07T09:06:28;22.30;28.50
23311;DHT22;11828;51.508;18.118;2022-12-07T09:08:58;22.30;28.60
23311;DHT22;11828;51.508;18.118;2022-12-07T09:11:24;22.40;29.20
23311;DHT22;11828;51.508;18.118;2022-12-07T09:13:50;22.40;28.70
23311;DHT22;11828;51.508;18.118;2022-12-07T09:16:17;22.50;28.20
23311;DHT22;11828;51.508;18.118;2022-12-07T09:18:43;22.60;28.00
23311;DHT22;11828;51.508;18.118;2022-12-07T09:21:09;22.50;28.00
23311;DHT22;11828;51.508;18.118;2022-12-07T09:23:36;22.50;27.90
23311;DHT22;11828;51.508;18.118;2022-12-07T09:26:03;22.60;27.70
23311;DHT22;11828;51.508;18.118;2022-12-07T09:28:30;22.60;27.90
23311;DHT22;11828;51.508;18.118;2022-12-07T09:30:57;22.70;28.10
23311;DHT22;11828;51.508;18.118;2022-12-07T09:33:23;22.80;28.10
23311;DHT22;11828;51.508;18.118;2022-12-07T09:35:50;23.00;27.90
23311;DHT22;11828;51.508;18.118;2022-12-07T09:38:19;23.20;27.80
23311;DHT22;11828;51.508;18.118;2022-12-07T09:40:47;23.30;27.40
23311;DHT22;11828;51.508;18.118;2022-12-07T09:43:19;23.20;27.20
23311;DHT22;11828;51.508;18.118;2022-12-07T09:45:56;23.30;27.20
23311;DHT22;11828;51.508;18.118;2022-12-07T09:48:36;23.40;27.30
23311;DHT22;11828;51.508;18.118;2022-12-07T09:51:18;23.40;27.50
23311;DHT22;11828;51.508;18.118;2022-12-07T09:53:46;23.40;27.00
23311;DHT22;11828;51.508;18.118;2022-12-07T09:56:19;23.60;27.10
23311;DHT22;11828;51.508;18.118;2022-12-07T09:58:46;23.60;26.80
23311;DHT22;11828;51.508;18.118;2022-12-07T10:01:20;23.50;26.50
23311;DHT22;11828;51.508;18.118;2022-12-07T10:06:17;23.30;26.90
23311;DHT22;11828;51.508;18.118;2022-12-07T10:08:43;23.30;27.30
23311;DHT22;11828;51.508;18.118;2022-12-07T10:11:10;23.30;27.10
23311;DHT22;11828;51.508;18.118;2022-12-07T10:13:48;23.20;27.00
23311;DHT22;11828;51.508;18.118;2022-12-07T10:18:52;22.90;26.80
23311;DHT22;11828;51.508;18.118;2022-12-07T10:21:24;22.90;27.00
23311;DHT22;11828;51.508;18.118;2022-12-07T10:29:19;22.80;27.20
23311;DHT22;11828;51.508;18.118;2022-12-07T10:32:44;22.80;27.10
23311;DHT22;11828;51.508;18.118;2022-12-07T10:34:45;22.80;27.40
23311;DHT22;11828;51.508;18.118;2022-12-07T10:37:18;23.00;27.60
23311;DHT22;11828;51.508;18.118;2022-12-07T10:39:49;23.10;27.40
23311;DHT22;11828;51.508;18.118;2022-12-07T10:45:15;23.40;27.20
23311;DHT22;11828;51.508;18.118;2022-12-07T10:48:03;23.50;27.20
23311;DHT22;11828;51.508;18.118;2022-12-07T10:51:22;23.60;27.20
23311;DHT22;11828;51.508;18.118;2022-12-07T10:54:04;23.80;27.00
23311;DHT22;11828;51.508;18.118;2022-12-07T10:56:48;23.80;26.60
23311;DHT22;11828;51.508;18.118;2022-12-07T11:05:27;23.70;26.60
23311;DHT22;11828;51.508;18.118;2022-12-07T11:13:56;23.50;26.80
23311;DHT22;11828;51.508;18.118;2022-12-07T11:17:14;23.40;26.70
23311;DHT22;11828;51.508;18.118;2022-12-07T11:34:55;22.80;27.90
23311;DHT22;11828;51.508;18.118;2022-12-07T11:37:41;22.70;28.00
23311;DHT22;11828;51.508;18.118;2022-12-07T11:43:06;22.70;28.30
23311;DHT22;11828;51.508;18.118;2022-12-07T11:45:39;22.60;28.40
23311;DHT22;11828;51.508;18.118;2022-12-07T11:50:56;22.40;28.90
23311;DHT22;11828;51.508;18.118;2022-12-07T11:53:28;22.40;28.80
23311;DHT22;11828;51.508;18.118;2022-12-07T11:56:16;22.40;29.00
23311;DHT22;11828;51.508;18.118;2022-12-07T11:59:05;22.30;29.00
23311;DHT22;11828;51.508;18.118;2022-12-07T12:01:58;22.20;29.10
23311;DHT22;11828;51.508;18.118;2022-12-07T12:04:58;22.20;29.30
23311;DHT22;11828;51.508;18.118;2022-12-07T12:07:29;22.10;29.50
23311;DHT22;11828;51.508;18.118;2022-12-07T12:10:20;22.10;29.50
23311;DHT22;11828;51.508;18.118;2022-12-07T12:13:40;22.10;29.70
23311;DHT22;11828;51.508;18.118;2022-12-07T12:19:28;21.80;29.80
23311;DHT22;11828;51.508;18.118;2022-12-07T12:22:28;21.70;29.90
23311;DHT22;11828;51.508;18.118;2022-12-07T12:24:59;21.60;30.10
23311;DHT22;11828;51.508;18.118;2022-12-07T12:27:33;21.70;30.30
23311;DHT22;11828;51.508;18.118;2022-12-07T12:30:05;21.60;30.00
23311;DHT22;11828;51.508;18.118;2022-12-07T12:32:42;21.70;30.00
23311;DHT22;11828;51.508;18.118;2022-12-07T12:35:30;21.70;30.10
23311;DHT22;11828;51.508;18.118;2022-12-07T12:38:21;21.80;30.10
23311;DHT22;11828;51.508;18.118;2022-12-07T12:40:54;21.90;30.10
23311;DHT22;11828;51.508;18.118;2022-12-07T12:43:41;21.80;29.90
23311;DHT22;11828;51.508;18.118;2022-12-07T12:46:55;21.80;30.20
23311;DHT22;11828;51.508;18.118;2022-12-07T12:57:36;22.10;30.00
23311;DHT22;11828;51.508;18.118;2022-12-07T13:00:16;22.30;29.60
23311;DHT22;11828;51.508;18.118;2022-12-07T13:02:48;22.50;29.60
23311;DHT22;11828;51.508;18.118;2022-12-07T13:05:24;22.50;29.10
23311;DHT22;11828;51.508;18.118;2022-12-07T13:08:00;22.50;29.20
23311;DHT22;11828;51.508;18.118;2022-12-07T13:15:45;22.40;29.50
23311;DHT22;11828;51.508;18.118;2022-12-07T13:23:36;22.90;28.40
23311;DHT22;11828;51.508;18.118;2022-12-07T13:26:19;22.90;28.30
23311;DHT22;11828;51.508;18.118;2022-12-07T13:28:47;22.80;28.20
23311;DHT22;11828;51.508;18.118;2022-12-07T13:33:54;22.50;28.60
23311;DHT22;11828;51.508;18.118;2022-12-07T13:36:25;22.50;28.70
23311;DHT22;11828;51.508;18.118;2022-12-07T13:38:58;22.30;28.60
23311;DHT22;11828;51.508;18.118;2022-12-07T13:41:27;22.30;28.70
23311;DHT22;11828;51.508;18.118;2022-12-07T13:44:05;22.20;28.90
23311;DHT22;11828;51.508;18.118;2022-12-07T13:46:44;21.90;29.00
23311;DHT22;11828;51.508;18.118;2022-12-07T13:51:47;21.90;29.50
23311;DHT22;11828;51.508;18.118;2022-12-07T13:54:14;22.10;29.70
23311;DHT22;11828;51.508;18.118;2022-12-07T13:56:41;22.20;29.30
23311;DHT22;11828;51.508;18.118;2022-12-07T13:59:18;22.10;29.20
23311;DHT22;11828;51.508;18.118;2022-12-07T14:01:47;22.00;29.30
23311;DHT22;11828;51.508;18.118;2022-12-07T14:07:22;22.00;29.20
23311;DHT22;11828;51.508;18.118;2022-12-07T14:10:27;22.00;29.10
23311;DHT22;11828;51.508;18.118;2022-12-07T14:13:02;22.00;29.10
23311;DHT22;11828;51.508;18.118;2022-12-07T14:15:32;22.10;28.90
23311;DHT22;11828;51.508;18.118;2022-12-07T14:18:01;22.00;28.90
23311;DHT22;11828;51.508;18.118;2022-12-07T14:20:40;22.00;28.70
23311;DHT22;11828;51.508;18.118;2022-12-07T14:23:24;21.80;28.70
23311;DHT22;11828;51.508;18.118;2022-12-07T14:25:53;21.80;28.80
23311;DHT22;11828;51.508;18.118;2022-12-07T14:28:31;21.80;28.70
23311;DHT22;11828;51.508;18.118;2022-12-07T14:31:00;21.60;28.60
23311;DHT22;11828;51.508;18.118;2022-12-07T14:33:27;21.80;28.80
23311;DHT22;11828;51.508;18.118;2022-12-07T14:35:54;21.60;28.60
23311;DHT22;11828;51.508;18.118;2022-12-07T14:38:24;21.60;28.60
23311;DHT22;11828;51.508;18.118;2022-12-07T14:40:51;21.70;28.60
23311;DHT22;11828;51.508;18.118;2022-12-07T14:43:18;21.80;28.50
23311;DHT22;11828;51.508;18.118;2022-12-07T14:45:45;21.80;28.50
23311;DHT22;11828;51.508;18.118;2022-12-07T14:48:13;21.80;28.50
23311;DHT22;11828;51.508;18.118;2022-12-07T14:50:49;21.90;28.50
23311;DHT22;11828;51.508;18.118;2022-12-07T14:53:18;21.90;28.50
23311;DHT22;11828;51.508;18.118;2022-12-07T14:55:47;21.80;28.50
23311;DHT22;11828;51.508;18.118;2022-12-07T14:58:17;21.70;28.60
23311;DHT22;11828;51.508;18.118;2022-12-07T15:00:44;21.60;29.30
23311;DHT22;11828;51.508;18.118;2022-12-07T15:03:10;21.70;28.70
23311;DHT22;11828;51.508;18.118;2022-12-07T15:05:39;21.80;28.70
23311;DHT22;11828;51.508;18.118;2022-12-07T15:08:09;21.90;28.50
23311;DHT22;11828;51.508;18.118;2022-12-07T15:10:37;21.90;28.40
23311;DHT22;11828;51.508;18.118;2022-12-07T15:13:04;21.80;28.40
23311;DHT22;11828;51.508;18.118;2022-12-07T15:15:50;21.90;28.30
23311;DHT22;11828;51.508;18.118;2022-12-07T15:18:18;21.90;28.20
23311;DHT22;11828;51.508;18.118;2022-12-07T15:20:45;21.80;28.20
23311;DHT22;11828;51.508;18.118;2022-12-07T15:23:12;21.80;28.30
23311;DHT22;11828;51.508;18.118;2022-12-07T15:25:43;21.80;28.30
23311;DHT22;11828;51.508;18.118;2022-12-07T15:28:13;21.80;28.30
23311;DHT22;11828;51.508;18.118;2022-12-07T15:30:41;21.50;28.30
23311;DHT22;11828;51.508;18.118;2022-12-07T15:33:09;21.50;28.50
23311;DHT22;11828;51.508;18.118;2022-12-07T15:35:40;21.40;28.60
23311;DHT22;11828;51.508;18.118;2022-12-07T15:38:10;21.40;28.70
23311;DHT22;11828;51.508;18.118;2022-12-07T15:40:36;21.40;28.60
23311;DHT22;11828;51.508;18.118;2022-12-07T15:43:03;21.30;28.60
23311;DHT22;11828;51.508;18.118;2022-12-07T15:45:30;21.30;28.60
23311;DHT22;11828;51.508;18.118;2022-12-07T15:47:56;21.40;28.60
23311;DHT22;11828;51.508;18.118;2022-12-07T15:50:22;21.40;28.60
23311;DHT22;11828;51.508;18.118;2022-12-07T15:52:48;21.30;28.60
23311;DHT22;11828;51.508;18.118;2022-12-07T15:55:15;21.30;28.60
23311;DHT22;11828;51.508;18.118;2022-12-07T15:57:41;21.30;28.70
23311;DHT22;11828;51.508;18.118;2022-12-07T16:00:08;21.30;28.60
23311;DHT22;11828;51.508;18.118;2022-12-07T16:02:36;21.20;28.70
23311;DHT22;11828;51.508;18.118;2022-12-07T16:05:03;21.30;28.60
23311;DHT22;11828;51.508;18.118;2022-12-07T16:07:29;21.40;28.80
23311;DHT22;11828;51.508;18.118;2022-12-07T16:09:56;21.40;28.60
23311;DHT22;11828;51.508;18.118;2022-12-07T16:12:22;21.60;28.60
23311;DHT22;11828;51.508;18.118;2022-12-07T16:14:48;21.70;28.20
23311;DHT22;11828;51.508;18.118;2022-12-07T16:17:14;21.80;28.00
23311;DHT22;11828;51.508;18.118;2022-12-07T16:19:40;21.70;27.90
23311;DHT22;11828;51.508;18.118;2022-12-07T16:22:06;21.70;27.70
23311;DHT22;11828;51.508;18.118;2022-12-07T16:24:32;21.70;27.50
23311;DHT22;11828;51.508;18.118;2022-12-07T16:26:58;21.70;27.60
23311;DHT22;11828;51.508;18.118;2022-12-07T16:29:25;21.80;27.60
23311;DHT22;11828;51.508;18.118;2022-12-07T16:31:51;21.70;27.50
23311;DHT22;11828;51.508;18.118;2022-12-07T16:34:18;21.70;27.60
23311;DHT22;11828;51.508;18.118;2022-12-07T16:36:44;21.70;27.60
23311;DHT22;11828;51.508;18.118;2022-12-07T16:39:11;21.70;27.50
23311;DHT22;11828;51.508;18.118;2022-12-07T16:41:37;21.70;27.50
23311;DHT22;11828;51.508;18.118;2022-12-07T16:44:05;21.70;27.50
23311;DHT22;11828;51.508;18.118;2022-12-07T16:46:34;21.70;27.50
23311;DHT22;11828;51.508;18.118;2022-12-07T16:49:02;21.80;27.50
23311;DHT22;11828;51.508;18.118;2022-12-07T16:51:28;21.60;27.50
23311;DHT22;11828;51.508;18.118;2022-12-07T16:53:55;21.80;27.30
23311;DHT22;11828;51.508;18.118;2022-12-07T16:56:21;21.80;27.30
23311;DHT22;11828;51.508;18.118;2022-12-07T16:58:48;21.80;27.20
23311;DHT22;11828;51.508;18.118;2022-12-07T17:01:17;21.80;27.10
23311;DHT22;11828;51.508;18.118;2022-12-07T17:03:45;21.80;27.10
23311;DHT22;11828;51.508;18.118;2022-12-07T17:06:29;21.90;27.20
23311;DHT22;11828;51.508;18.118;2022-12-07T17:08:57;22.00;27.10
23311;DHT22;11828;51.508;18.118;2022-12-07T17:11:26;22.10;27.00
23311;DHT22;11828;51.508;18.118;2022-12-07T17:13:54;22.00;26.90
23311;DHT22;11828;51.508;18.118;2022-12-07T17:16:39;21.90;26.90
23311;DHT22;11828;51.508;18.118;2022-12-07T17:19:07;21.90;27.00
23311;DHT22;11828;51.508;18.118;2022-12-07T17:21:36;21.80;27.00
23311;DHT22;11828;51.508;18.118;2022-12-07T17:24:05;21.90;26.90
23311;DHT22;11828;51.508;18.118;2022-12-07T17:26:33;22.00;26.90
23311;DHT22;11828;51.508;18.118;2022-12-07T17:29:00;21.90;26.80
23311;DHT22;11828;51.508;18.118;2022-12-07T17:31:26;22.00;26.80
23311;DHT22;11828;51.508;18.118;2022-12-07T17:33:53;21.80;26.80
23311;DHT22;11828;51.508;18.118;2022-12-07T17:36:25;21.90;26.90
23311;DHT22;11828;51.508;18.118;2022-12-07T17:38:53;21.90;27.00
23311;DHT22;11828;51.508;18.118;2022-12-07T17:41:20;21.90;27.50